This is the latest recevied weather packets stored in our database for station/object KC4JES. If no packets are shown the sender has not sent any weather packets the latest 10 day(s).
| Time | Temp. | Humidity | Pressure | Rain* | Wind** | Luminosity | Snow |
|---|---|---|---|---|---|---|---|
| 1777515270 | 25.56° C | 63% | 1012.9 hPa | 0 mm | - | 0 W/m² | - |
| 1777514966 | 25.56° C | 63% | 1012.5 hPa | 0 mm | - | 0 W/m² | - |
| 1777514663 | 26.11° C | 63% | 1012.9 hPa | 0 mm | - | 0 W/m² | - |
| 1777514360 | 26.11° C | 62% | 1012.4 hPa | 0 mm | - | 0 W/m² | - |
| 1777514057 | 26.11° C | 62% | 1012.4 hPa | 0 mm | - | 0 W/m² | - |
| 1777513754 | 26.11° C | 63% | 1012.5 hPa | 0 mm | - | 0 W/m² | - |
| 1777513451 | 26.11° C | 64% | 1012.3 hPa | 0 mm | - | 0 W/m² | - |
| 1777513148 | 25.56° C | 66% | 1012.4 hPa | 0 mm | - | 0 W/m² | - |
| 1777512540 | 25.56° C | 67% | 1012.4 hPa | 0 mm | - | 0 W/m² | - |
| 1777511934 | 25° C | 68% | 1012.6 hPa | 0 mm | - | 0 W/m² | - |
| 1777511631 | 25° C | 70% | 1012.5 hPa | 0 mm | - | 0 W/m² | - |
| 1777511330 | 25° C | 71% | 1012.3 hPa | 0 mm | - | 0 W/m² | - |
| 1777510722 | 25° C | 76% | 1011.9 hPa | 0 mm | - | 0 W/m² | - |
| 1777510418 | 25° C | 76% | 1011.6 hPa | 0 mm | - | 0 W/m² | - |
| 1777510114 | 25° C | 76% | 1011.3 hPa | 0 mm | - | 0 W/m² | - |
| 1777508901 | 25.56° C | 75% | 1011.5 hPa | 0 mm | - | 0 W/m² | - |
| 1777506781 | 26.11° C | 72% | 1010.8 hPa | 0 mm | - | 3 W/m² | - |
| 1777506173 | 26.11° C | 71% | 1010.9 hPa | 0 mm | - | 8 W/m² | - |
| 1777505869 | 26.67° C | 70% | 1010.6 hPa | 0 mm | - | 17 W/m² | - |
| 1777505565 | 26.11° C | 71% | 1010.9 hPa | 0 mm | - | 20 W/m² | - |
| 1777502531 | 26.67° C | 70% | 1010.7 hPa | 0 mm | - | 27 W/m² | - |
| 1777502228 | 27.22° C | 70% | 1010.5 hPa | 0 mm | - | 30 W/m² | - |
| 1777501925 | 27.22° C | 70% | 1010.5 hPa | 0 mm | - | 43 W/m² | - |
| 1777501016 | 27.78° C | 70% | 1010.7 hPa | 0 mm | - | 137 W/m² | - |
| 1777500714 | 27.78° C | 70% | 1010.4 hPa | 0 mm | - | 68 W/m² | - |
* Rain latest hour (hover to see other rain measurements)
** Current wind speed in m/s (hover to see current wind gust speed)